Time;durP1;ratioP1;P1;durP2;ratioP2;P2;SDS_P1;SDS_P2;PMS_P1;PMS_P2;Temp;Humidity;BMP_temperature;BMP_pressure;BME280_temperature;BME280_humidity;BME280_pressure;Samples;Min_cycle;Max_cycle;Signal;HPM_P1;HPM_P2
2023/06/03 00:02:01;;;;;;;2.65;0.98;;;15.90;89.80;;;;;;5005671;28;20026;-67
2023/06/03 00:04:33;;;;;;;8.07;1.92;;;15.90;90.20;;;;;;5007872;28;20033;-67
2023/06/03 00:06:59;;;;;;;4.35;1.30;;;15.90;90.30;;;;;;4991795;28;20113;-68
2023/06/03 00:09:25;;;;;;;3.85;1.08;;;15.90;90.40;;;;;;5010372;28;20056;-68
2023/06/03 00:11:51;;;;;;;2.80;1.13;;;15.90;90.60;;;;;;4991759;28;20116;-68
2023/06/03 00:14:17;;;;;;;3.00;1.52;;;16.00;90.60;;;;;;5010185;28;20117;-68
2023/06/03 00:16:45;;;;;;;2.45;1.20;;;15.90;90.70;;;;;;5009419;28;20069;-68
2023/06/03 00:19:14;;;;;;;4.70;1.00;;;15.90;91.00;;;;;;4973449;28;20022;-68
2023/06/03 00:21:49;;;;;;;4.00;1.30;;;15.90;91.00;;;;;;5011810;28;20034;-67
2023/06/03 00:24:24;;;;;;;2.80;1.02;;;15.70;91.40;;;;;;5010880;28;20045;-68
2023/06/03 00:26:54;;;;;;;7.38;1.70;;;15.70;91.60;;;;;;4996488;28;20034;-68
2023/06/03 00:29:20;;;;;;;2.45;1.02;;;15.70;91.70;;;;;;4996401;28;20095;-67
2023/06/03 00:31:47;;;;;;;2.95;1.70;;;15.70;91.90;;;;;;5012670;28;20042;-68
2023/06/03 00:34:13;;;;;;;5.93;0.93;;;15.70;91.90;;;;;;4996132;28;20501;-69
2023/06/03 00:36:39;;;;;;;10.25;1.63;;;15.80;92.00;;;;;;4995995;28;20034;-68
2023/06/03 00:39:05;;;;;;;3.97;0.98;;;15.90;92.00;;;;;;5013231;28;20026;-68
2023/06/03 00:41:31;;;;;;;8.63;1.63;;;15.80;92.10;;;;;;4992827;28;20117;-68
2023/06/03 00:43:56;;;;;;;9.45;1.48;;;15.80;92.20;;;;;;5012059;28;20045;-68
2023/06/03 00:46:22;;;;;;;2.35;0.98;;;15.80;92.20;;;;;;5013698;28;20038;-68
2023/06/03 00:48:50;;;;;;;2.70;1.17;;;15.80;92.30;;;;;;5012276;28;20034;-68
2023/06/03 00:51:17;;;;;;;2.90;1.60;;;15.90;92.40;;;;;;4999017;28;20029;-68
2023/06/03 00:53:44;;;;;;;3.15;1.40;;;15.90;92.30;;;;;;4995550;28;20057;-68
2023/06/03 00:56:10;;;;;;;11.43;1.48;;;15.90;92.40;;;;;;5013519;28;20037;-68
2023/06/03 00:58:36;;;;;;;13.10;1.77;;;15.70;92.70;;;;;;5012171;28;20026;-68
2023/06/03 01:01:02;;;;;;;7.80;1.48;;;15.70;93.10;;;;;;5012737;28;20492;-68
2023/06/03 01:03:28;;;;;;;3.03;1.60;;;15.60;93.40;;;;;;4995083;28;20045;-68
2023/06/03 01:06:24;;;;;;;5.63;0.95;;;15.60;93.50;;;;;;5006616;28;20045;-68
2023/06/03 01:09:01;;;;;;;4.65;1.23;;;15.60;93.50;;;;;;4993571;28;20037;-68
2023/06/03 01:11:39;;;;;;;6.80;1.50;;;15.50;93.90;;;;;;5011329;28;20124;-68
2023/06/03 01:14:24;;;;;;;2.80;1.35;;;15.50;94.00;;;;;;5012791;28;20444;-68
2023/06/03 01:16:52;;;;;;;1.70;1.02;;;15.50;94.10;;;;;;4994367;28;20062;-68
2023/06/03 01:19:48;;;;;;;3.08;1.05;;;15.20;94.80;;;;;;4995552;28;20058;-69
2023/06/03 01:22:24;;;;;;;3.10;1.20;;;15.10;95.60;;;;;;4987928;28;20029;-67
2023/06/03 01:24:50;;;;;;;3.83;1.40;;;15.00;96.00;;;;;;4995245;28;20058;-67
2023/06/03 01:27:18;;;;;;;8.10;1.45;;;15.00;96.20;;;;;;5004394;28;20101;-67
2023/06/03 01:29:45;;;;;;;3.67;1.35;;;15.00;96.60;;;;;;5012722;28;20045;-67
2023/06/03 01:32:15;;;;;;;1.83;1.17;;;15.10;96.40;;;;;;5009759;28;20032;-67
2023/06/03 01:34:42;;;;;;;5.82;1.73;;;15.10;96.40;;;;;;4987040;28;20065;-67
2023/06/03 01:37:09;;;;;;;2.60;1.23;;;15.10;96.60;;;;;;4993712;28;20508;-67
2023/06/03 01:39:40;;;;;;;1.42;0.70;;;15.00;96.60;;;;;;4994593;28;20026;-66
2023/06/03 01:42:11;;;;;;;4.72;1.05;;;15.10;96.80;;;;;;4993199;28;20038;-66
2023/06/03 01:44:38;;;;;;;2.58;1.05;;;15.10;97.00;;;;;;4995277;28;20068;-66
2023/06/03 01:47:05;;;;;;;3.83;1.15;;;14.90;97.20;;;;;;4959960;28;20109;-66
2023/06/03 01:49:31;;;;;;;5.38;1.38;;;14.90;97.50;;;;;;4978695;28;20740;-66
2023/06/03 01:52:02;;;;;;;1.55;1.20;;;15.00;97.60;;;;;;4993699;28;20485;-64
2023/06/03 01:54:29;;;;;;;3.45;1.05;;;14.90;97.90;;;;;;4994974;28;20416;-63
2023/06/03 01:56:56;;;;;;;3.00;1.73;;;14.80;98.20;;;;;;4994170;28;20072;-64
2023/06/03 01:59:24;;;;;;;3.10;1.40;;;14.70;98.80;;;;;;4994655;28;20028;-63
2023/06/03 02:01:53;;;;;;;2.92;1.30;;;14.80;99.00;;;;;;4993380;28;20386;-63
2023/06/03 02:04:19;;;;;;;1.70;1.10;;;14.80;99.30;;;;;;4994610;28;20034;-63
2023/06/03 02:07:01;;;;;;;7.97;1.27;;;14.80;99.30;;;;;;4993709;28;20374;-64
2023/06/03 02:09:28;;;;;;;2.70;1.38;;;14.80;99.30;;;;;;4995222;28;20034;-64
2023/06/03 02:11:56;;;;;;;3.80;1.40;;;14.80;99.50;;;;;;5011143;28;20488;-64
2023/06/03 02:14:23;;;;;;;4.68;1.33;;;14.80;99.50;;;;;;5011683;28;20117;-63
2023/06/03 02:16:49;;;;;;;4.53;1.33;;;14.70;99.90;;;;;;5009552;28;20398;-63
2023/06/03 02:19:20;;;;;;;8.50;1.55;;;14.60;99.90;;;;;;4999515;28;20034;-64
2023/06/03 02:21:47;;;;;;;3.70;1.05;;;14.50;99.90;;;;;;5009384;28;20039;-64
2023/06/03 02:24:14;;;;;;;4.53;1.60;;;14.50;99.90;;;;;;4994167;28;20030;-64
2023/06/03 02:26:52;;;;;;;4.97;1.50;;;14.40;99.90;;;;;;4993702;28;20125;-64
2023/06/03 02:29:23;;;;;;;6.95;1.75;;;14.40;99.90;;;;;;4992372;28;20052;-64
2023/06/03 02:31:50;;;;;;;;;;;14.30;99.90;;;;;;4993593;28;20037;-64
2023/06/03 02:34:16;;;;;;;5.28;1.67;;;14.10;99.90;;;;;;5011631;28;20013;-64
2023/06/03 02:36:43;;;;;;;1.85;1.10;;;14.00;99.90;;;;;;5010988;28;20070;-64
2023/06/03 02:39:13;;;;;;;2.72;1.42;;;13.90;99.90;;;;;;5002682;28;20072;-64
2023/06/03 02:41:42;;;;;;;2.17;0.80;;;13.80;99.90;;;;;;4991933;28;20113;-64
2023/06/03 02:44:08;;;;;;;6.20;1.40;;;13.60;99.90;;;;;;4994036;28;20385;-64
2023/06/03 02:46:34;;;;;;;1.80;1.30;;;13.50;99.90;;;;;;5012097;23;20046;-67
2023/06/03 02:49:04;;;;;;;5.78;1.20;;;13.50;99.90;;;;;;4970737;28;20105;-66
2023/06/03 02:51:30;;;;;;;3.97;1.75;;;13.40;99.90;;;;;;4980330;28;20042;-66
2023/06/03 02:53:56;;;;;;;4.78;1.35;;;13.40;99.90;;;;;;4983235;28;20062;-66
2023/06/03 02:56:22;;;;;;;3.13;1.60;;;13.40;99.90;;;;;;4949591;28;20073;-66
2023/06/03 02:58:50;;;;;;;3.17;1.30;;;13.40;99.90;;;;;;4983213;28;20026;-65
2023/06/03 03:01:18;;;;;;;2.15;1.10;;;13.40;99.90;;;;;;4965456;28;20505;-66
2023/06/03 03:03:44;;;;;;;3.03;1.63;;;13.20;99.90;;;;;;4935548;29;20023;-66
2023/06/03 03:06:15;;;;;;;2.85;1.40;;;13.10;99.90;;;;;;4958157;28;20089;-66
2023/06/03 03:08:45;;;;;;;;;;;13.10;99.90;;;;;;4972686;28;20062;-66
2023/06/03 03:11:10;;;;;;;3.08;1.45;;;13.00;99.90;;;;;;4953907;28;19917;-67
2023/06/03 03:13:36;;;;;;;3.50;1.48;;;12.90;99.90;;;;;;4964946;28;20093;-66
2023/06/03 03:16:02;;;;;;;2.05;1.33;;;12.80;99.90;;;;;;4952495;28;20035;-65
2023/06/03 03:18:30;;;;;;;5.03;1.40;;;12.80;99.90;;;;;;4979979;28;20035;-66
2023/06/03 03:20:56;;;;;;;4.10;1.38;;;12.70;99.90;;;;;;4972003;28;20038;-65
2023/06/03 03:23:22;;;;;;;5.07;2.17;;;12.80;99.90;;;;;;4947809;28;20042;-66
2023/06/03 03:25:47;;;;;;;8.88;1.58;;;12.80;99.90;;;;;;4946133;28;20042;-65
2023/06/03 03:28:13;;;;;;;5.65;1.38;;;12.80;99.90;;;;;;4933985;28;20054;-66
2023/06/03 03:30:39;;;;;;;3.40;1.65;;;12.80;99.90;;;;;;4917292;28;20054;-65
2023/06/03 03:33:05;;;;;;;6.07;1.40;;;12.70;99.90;;;;;;4948301;28;20031;-66
2023/06/03 03:35:32;;;;;;;6.47;1.95;;;12.70;99.90;;;;;;4941236;28;20031;-66
2023/06/03 03:38:04;;;;;;;2.35;1.35;;;12.60;99.90;;;;;;4947911;28;20465;-66
2023/06/03 03:40:37;;;;;;;2.17;1.13;;;12.60;99.90;;;;;;4934760;28;20023;-66
2023/06/03 03:43:03;;;;;;;6.32;1.85;;;12.50;99.90;;;;;;4933497;28;20298;-66
2023/06/03 03:45:35;;;;;;;6.28;1.52;;;12.50;99.90;;;;;;4947325;28;20039;-66
2023/06/03 03:48:08;;;;;;;3.15;1.20;;;12.50;99.90;;;;;;4932086;28;20562;-66
2023/06/03 03:50:48;;;;;;;4.80;1.10;;;12.50;99.90;;;;;;4940242;28;20429;-66
2023/06/03 03:53:23;;;;;;;4.32;1.38;;;12.40;99.90;;;;;;4932581;28;20074;-66
2023/06/03 03:55:52;;;;;;;7.00;1.50;;;12.40;99.90;;;;;;4936168;28;20450;-66
2023/06/03 03:58:29;;;;;;;5.00;1.45;;;12.30;99.90;;;;;;4951380;28;20055;-66
2023/06/03 04:01:00;;;;;;;3.13;1.40;;;12.20;99.90;;;;;;4951417;28;20122;-66
2023/06/03 04:03:30;;;;;;;4.35;1.58;;;12.20;99.90;;;;;;4957426;28;20082;-68
2023/06/03 04:05:56;;;;;;;11.35;1.83;;;12.30;99.90;;;;;;4952298;28;20059;-65
2023/06/03 04:08:58;;;;;;;3.03;1.42;;;12.20;99.90;;;;;;4925398;28;20038;-64
2023/06/03 04:11:28;;;;;;;1.80;1.25;;;12.30;99.90;;;;;;4869924;29;20033;-65
2023/06/03 04:13:58;;;;;;;3.30;1.30;;;12.20;99.90;;;;;;4938112;28;20138;-66
2023/06/03 04:16:55;;;;;;;7.07;1.87;;;12.40;99.90;;;;;;4955935;28;20540;-66
2023/06/03 04:19:32;;;;;;;13.85;2.30;;;12.50;99.90;;;;;;4943444;28;20023;-66
2023/06/03 04:21:59;;;;;;;3.10;1.40;;;12.60;99.90;;;;;;4959083;28;20055;-66
2023/06/03 04:24:26;;;;;;;4.38;1.42;;;12.70;99.90;;;;;;4960965;28;20038;-67
2023/06/03 04:26:53;;;;;;;3.53;1.88;;;12.70;99.90;;;;;;4944084;28;20054;-67
2023/06/03 04:29:19;;;;;;;5.38;1.48;;;12.80;99.90;;;;;;4950043;28;20400;-67
2023/06/03 04:31:45;;;;;;;6.13;1.55;;;12.90;99.90;;;;;;4953062;28;20042;-67
2023/06/03 04:34:10;;;;;;;6.90;1.40;;;12.90;99.90;;;;;;4953328;28;20031;-67
2023/06/03 04:36:36;;;;;;;2.78;1.30;;;12.90;99.90;;;;;;4961195;28;20062;-67
2023/06/03 04:39:05;;;;;;;3.20;1.60;;;13.00;99.90;;;;;;4964694;28;20030;-66
2023/06/03 04:41:35;;;;;;;3.08;1.10;;;13.10;99.90;;;;;;4950566;28;20027;-67
2023/06/03 04:44:01;;;;;;;4.72;1.90;;;13.20;99.90;;;;;;4956931;28;20043;-67
2023/06/03 04:46:31;;;;;;;5.05;2.08;;;13.30;99.90;;;;;;4960190;28;20031;-67
2023/06/03 04:48:59;;;;;;;2.30;1.35;;;13.30;99.90;;;;;;4949803;28;20387;-68
2023/06/03 04:51:28;;;;;;;2.30;1.45;;;13.30;99.90;;;;;;4949979;28;20027;-67
2023/06/03 04:53:57;;;;;;;9.27;1.60;;;13.40;99.90;;;;;;4954426;28;20062;-67
2023/06/03 04:56:24;;;;;;;3.78;1.50;;;13.50;99.90;;;;;;4967700;28;20026;-67
2023/06/03 04:58:55;;;;;;;3.28;1.35;;;13.50;99.90;;;;;;4964039;28;20085;-66
2023/06/03 05:01:25;;;;;;;5.67;1.70;;;13.60;99.90;;;;;;4985054;28;20027;-66
2023/06/03 05:03:55;;;;;;;3.47;1.70;;;13.70;99.90;;;;;;4986078;28;20125;-67
2023/06/03 05:06:23;;;;;;;9.40;1.83;;;13.70;99.90;;;;;;4984738;28;20077;-67
2023/06/03 05:08:50;;;;;;;1.80;1.10;;;13.80;99.90;;;;;;4985973;28;20470;-66
2023/06/03 05:11:20;;;;;;;2.33;1.33;;;13.80;99.90;;;;;;4958240;28;20031;-67
2023/06/03 05:13:46;;;;;;;7.30;1.63;;;13.80;99.90;;;;;;4977314;28;20076;-68
2023/06/03 05:16:12;;;;;;;7.25;1.48;;;13.90;99.90;;;;;;4984192;28;20038;-67
2023/06/03 05:18:39;;;;;;;8.80;1.70;;;14.00;99.90;;;;;;4965102;28;20062;-67
2023/06/03 05:21:06;;;;;;;3.40;1.58;;;14.00;99.90;;;;;;4981242;28;20031;-67
2023/06/03 05:23:31;;;;;;;5.45;1.92;;;13.90;99.90;;;;;;4974341;28;20035;-67
2023/06/03 05:25:57;;;;;;;2.85;1.85;;;14.00;99.90;;;;;;4967025;28;20093;-67
2023/06/03 05:28:25;;;;;;;5.10;2.67;;;14.10;99.90;;;;;;4985692;28;20034;-66
2023/06/03 05:30:51;;;;;;;6.90;2.22;;;14.20;99.90;;;;;;4966547;28;20397;-67
2023/06/03 05:33:30;;;;;;;10.40;2.22;;;14.40;99.90;;;;;;4985211;28;20031;-67
2023/06/03 05:35:56;;;;;;;3.75;1.48;;;14.40;99.90;;;;;;4984363;28;20022;-67
2023/06/03 05:38:23;;;;;;;2.63;1.50;;;14.50;99.90;;;;;;4963268;28;20031;-67
2023/06/03 05:40:50;;;;;;;2.80;1.27;;;14.70;99.90;;;;;;4983826;28;20023;-67
2023/06/03 05:43:17;;;;;;;3.97;1.70;;;14.80;99.90;;;;;;4962244;28;20038;-67
2023/06/03 05:45:43;;;;;;;3.83;1.67;;;14.90;99.90;;;;;;4983198;28;20022;-67
2023/06/03 05:48:10;;;;;;;4.82;1.95;;;14.90;99.90;;;;;;4985946;28;20042;-68
2023/06/03 05:50:38;;;;;;;6.75;1.42;;;15.00;99.90;;;;;;4983598;28;20038;-67
2023/06/03 05:53:05;;;;;;;3.53;1.38;;;15.10;99.90;;;;;;4965225;28;20498;-72
2023/06/03 05:55:31;;;;;;;4.43;2.25;;;15.10;99.90;;;;;;4984138;28;20426;-73
2023/06/03 05:57:57;;;;;;;4.45;1.38;;;15.30;99.90;;;;;;4986163;28;20031;-72
2023/06/03 06:00:22;;;;;;;4.07;1.75;;;15.40;99.90;;;;;;4983880;28;20429;-70
2023/06/03 06:02:48;;;;;;;6.78;2.22;;;15.60;99.90;;;;;;4950730;28;20038;-71
2023/06/03 06:05:14;;;;;;;2.03;1.23;;;15.80;99.90;;;;;;4984237;28;20037;-70
2023/06/03 06:07:40;;;;;;;1.92;1.00;;;15.70;99.90;;;;;;4986407;28;20048;-73
2023/06/03 06:10:06;;;;;;;2.38;1.30;;;15.60;99.90;;;;;;4983827;28;20109;-71
2023/06/03 06:12:32;;;;;;;1.58;1.23;;;15.90;99.90;;;;;;4962441;28;20031;-71
2023/06/03 06:14:58;;;;;;;5.22;1.60;;;16.20;99.90;;;;;;4984065;28;20076;-67
2023/06/03 06:17:24;;;;;;;3.20;1.73;;;16.30;99.90;;;;;;4985338;28;20510;-67
2023/06/03 06:19:49;;;;;;;15.10;1.65;;;16.50;99.90;;;;;;4960402;28;20411;-67
2023/06/03 06:22:15;;;;;;;5.32;1.73;;;16.30;99.90;;;;;;4968783;28;20019;-68
2023/06/03 06:24:42;;;;;;;4.10;1.98;;;16.10;99.90;;;;;;4983364;28;20037;-67
2023/06/03 06:27:08;;;;;;;6.35;2.13;;;16.20;99.90;;;;;;4966374;28;20035;-68
2023/06/03 06:29:34;;;;;;;5.47;1.70;;;16.30;99.90;;;;;;4965611;28;20034;-67
2023/06/03 06:32:01;;;;;;;3.33;1.52;;;16.20;99.90;;;;;;4949114;28;20511;-67
2023/06/03 06:34:31;;;;;;;11.68;1.75;;;16.50;99.90;;;;;;4981897;28;20407;-68
2023/06/03 06:36:58;;;;;;;3.95;1.50;;;16.50;99.90;;;;;;4973889;28;20059;-67
2023/06/03 06:39:52;;;;;;;5.57;1.95;;;16.70;99.90;;;;;;4964254;28;20023;-67
2023/06/03 06:42:35;;;;;;;4.88;2.08;;;16.80;99.90;;;;;;4985264;28;20026;-67
2023/06/03 06:45:25;;;;;;;5.18;1.52;;;16.90;99.90;;;;;;4966410;28;20081;-67
2023/06/03 06:48:09;;;;;;;3.75;1.33;;;17.00;99.90;;;;;;4985514;28;20152;-67
2023/06/03 06:50:58;;;;;;;3.08;2.05;;;17.00;99.90;;;;;;4982912;28;20042;-67
2023/06/03 06:53:26;;;;;;;4.57;2.35;;;16.90;99.90;;;;;;4983811;28;20045;-68
2023/06/03 06:55:55;;;;;;;2.95;1.67;;;17.10;99.90;;;;;;4973994;28;20033;-68
2023/06/03 06:58:24;;;;;;;4.38;1.65;;;17.10;99.90;;;;;;4963710;28;20033;-69
2023/06/03 07:00:50;;;;;;;3.28;1.35;;;17.30;99.90;;;;;;4984315;28;20032;-68
2023/06/03 07:03:20;;;;;;;3.42;1.45;;;17.20;99.90;;;;;;4984844;28;20038;-68
2023/06/03 07:05:52;;;;;;;4.45;2.00;;;17.40;99.90;;;;;;4973711;28;20034;-67
2023/06/03 07:08:18;;;;;;;6.22;1.17;;;17.30;99.50;;;;;;4984042;28;20402;-67
2023/06/03 07:10:44;;;;;;;4.20;1.55;;;17.40;99.90;;;;;;4978392;28;20039;-67
2023/06/03 07:13:10;;;;;;;8.38;1.75;;;17.40;99.80;;;;;;4978188;28;20040;-67
2023/06/03 07:15:39;;;;;;;7.68;1.88;;;17.60;99.40;;;;;;4981674;28;20030;-67
2023/06/03 07:18:06;;;;;;;3.28;1.67;;;17.70;99.40;;;;;;4985606;28;20041;-67
2023/06/03 07:20:38;;;;;;;5.00;1.80;;;17.80;99.10;;;;;;4982946;28;20041;-67
2023/06/03 07:23:10;;;;;;;6.30;2.30;;;18.10;98.60;;;;;;4984690;28;20619;-67
2023/06/03 07:25:46;;;;;;;5.10;1.85;;;18.00;98.30;;;;;;4983123;28;20062;-67
2023/06/03 07:28:14;;;;;;;7.13;2.30;;;18.00;98.20;;;;;;4985306;28;20125;-68
2023/06/03 07:30:43;;;;;;;4.03;1.83;;;18.20;98.10;;;;;;4974776;28;20038;-67
2023/06/03 07:33:30;;;;;;;8.13;1.77;;;18.20;98.00;;;;;;4967218;28;20034;-67
2023/06/03 07:36:02;;;;;;;4.18;1.63;;;18.20;98.10;;;;;;4965515;28;20577;-66
2023/06/03 07:38:37;;;;;;;3.70;1.42;;;18.30;98.00;;;;;;4962368;28;20038;-72
2023/06/03 07:41:07;;;;;;;11.32;1.83;;;18.30;97.30;;;;;;4984872;28;20041;-73
2023/06/03 07:43:40;;;;;;;7.22;1.75;;;18.30;97.70;;;;;;4949416;28;20057;-73
2023/06/03 07:46:07;;;;;;;2.38;1.45;;;18.50;97.60;;;;;;4973545;28;20027;-74
2023/06/03 07:48:38;;;;;;;6.07;1.63;;;18.60;97.10;;;;;;4960935;28;20100;-72
2023/06/03 07:51:08;;;;;;;5.05;1.35;;;18.70;96.80;;;;;;4973250;28;20117;-73
2023/06/03 07:53:36;;;;;;;2.83;1.30;;;18.70;96.90;;;;;;4961097;28;20059;-73
2023/06/03 07:56:12;;;;;;;5.22;1.77;;;18.80;97.10;;;;;;4985784;28;20037;-73
2023/06/03 07:58:38;;;;;;;4.45;1.63;;;19.00;96.40;;;;;;4960465;28;20126;-73
2023/06/03 08:01:05;;;;;;;3.05;1.45;;;19.10;96.30;;;;;;4971000;28;20074;-72
2023/06/03 08:03:32;;;;;;;2.67;1.67;;;19.00;96.20;;;;;;4957653;28;20107;-72
2023/06/03 08:05:58;;;;;;;2.92;1.55;;;19.10;96.30;;;;;;4973422;28;20030;-73
2023/06/03 08:08:33;;;;;;;3.28;1.70;;;19.10;96.20;;;;;;4983224;28;20038;-72
2023/06/03 08:11:01;;;;;;;7.57;1.70;;;19.20;96.00;;;;;;4966505;28;20105;-72
2023/06/03 08:13:27;;;;;;;5.28;1.58;;;19.40;95.80;;;;;;4976680;28;20035;-72
2023/06/03 08:15:52;;;;;;;5.47;1.33;;;19.60;95.60;;;;;;4959880;28;20035;-73
2023/06/03 08:18:47;;;;;;;9.15;1.85;;;19.60;95.40;;;;;;4977954;28;20034;-73
2023/06/03 08:21:14;;;;;;;4.00;1.65;;;19.50;95.20;;;;;;4982466;28;20758;-72
2023/06/03 08:23:40;;;;;;;2.40;0.93;;;19.60;95.50;;;;;;4981098;28;20391;-73
2023/06/03 08:26:08;;;;;;;4.03;1.30;;;19.80;95.10;;;;;;4986151;28;20466;-73
2023/06/03 08:28:34;;;;;;;3.78;1.63;;;20.10;94.60;;;;;;4980659;28;20062;-73
2023/06/03 08:30:59;;;;;;;9.75;1.63;;;20.10;94.00;;;;;;4985422;28;20108;-73
2023/06/03 08:33:25;;;;;;;3.50;1.67;;;19.60;94.50;;;;;;4963018;28;20026;-72
2023/06/03 08:35:51;;;;;;;4.40;1.70;;;19.80;94.90;;;;;;4973954;28;20088;-73
2023/06/03 08:38:17;;;;;;;5.07;1.70;;;20.00;94.40;;;;;;4967686;28;20077;-73
2023/06/03 08:40:48;;;;;;;3.97;2.05;;;20.10;94.30;;;;;;4963714;28;20057;-73
2023/06/03 08:43:15;;;;;;;4.53;1.33;;;20.30;93.90;;;;;;4952575;28;20042;-73
2023/06/03 08:48:47;;;;;;;2.55;1.40;;;20.60;93.80;;;;;;4968751;28;19984;-68
2023/06/03 08:51:15;;;;;;;1.85;1.25;;;20.70;93.40;;;;;;4943455;28;20027;-68
2023/06/03 08:53:49;;;;;;;1.98;1.35;;;20.40;93.50;;;;;;4966527;28;20027;-68
2023/06/03 08:56:18;;;;;;;4.18;1.00;;;20.40;93.10;;;;;;4974062;28;20026;-67
2023/06/03 08:59:00;;;;;;;2.10;1.20;;;20.40;93.50;;;;;;4964958;28;20035;-69
2023/06/03 09:01:37;;;;;;;5.18;1.48;;;20.50;93.50;;;;;;4957466;28;20030;-68
2023/06/03 09:04:06;;;;;;;4.55;2.58;;;20.90;93.70;;;;;;4964935;28;20039;-67
2023/06/03 09:06:32;;;;;;;4.75;1.52;;;20.90;93.20;;;;;;4973365;28;20531;-67
2023/06/03 09:09:00;;;;;;;3.28;1.50;;;21.20;92.70;;;;;;4964719;28;20039;-67
2023/06/03 09:11:26;;;;;;;3.67;1.55;;;21.30;92.60;;;;;;4956171;28;20465;-68
2023/06/03 09:13:53;;;;;;;3.67;1.48;;;21.30;92.50;;;;;;4964407;28;20042;-67
2023/06/03 09:16:20;;;;;;;9.23;1.67;;;21.50;92.30;;;;;;4973815;28;20033;-68
2023/06/03 09:18:48;;;;;;;7.88;1.42;;;21.50;91.90;;;;;;4964457;28;20474;-68
2023/06/03 09:21:15;;;;;;;5.63;1.85;;;21.50;92.30;;;;;;4971103;28;20074;-68
2023/06/03 09:23:41;;;;;;;3.85;1.83;;;21.30;92.10;;;;;;4964169;28;20057;-68
2023/06/03 09:26:07;;;;;;;7.55;1.67;;;21.50;92.20;;;;;;4972981;28;20070;-68
2023/06/03 09:28:36;;;;;;;3.55;1.52;;;21.50;91.70;;;;;;4972224;28;20039;-67
2023/06/03 09:31:05;;;;;;;3.75;1.10;;;21.70;91.70;;;;;;4955618;28;20656;-68
2023/06/03 09:33:49;;;;;;;2.70;1.55;;;21.90;91.70;;;;;;4972264;28;20027;-70
2023/06/03 09:36:15;;;;;;;3.58;1.60;;;21.90;91.50;;;;;;4958098;28;20105;-69
2023/06/03 09:38:55;;;;;;;3.05;1.67;;;22.10;91.30;;;;;;4969902;28;20522;-65
2023/06/03 09:41:55;;;;;;;3.03;1.40;;;22.20;91.50;;;;;;4959485;28;20034;-66
2023/06/03 09:45:02;;;;;;;2.65;1.15;;;22.50;91.30;;;;;;4963897;28;20031;-66
2023/06/03 09:47:43;;;;;;;3.67;1.33;;;22.70;90.50;;;;;;4920703;29;20538;-66
2023/06/03 09:50:11;;;;;;;2.35;1.67;;;22.90;90.60;;;;;;4915503;29;20472;-66
2023/06/03 09:52:37;;;;;;;2.58;1.33;;;23.00;90.30;;;;;;4918992;29;20040;-67
2023/06/03 09:55:37;;;;;;;4.40;1.45;;;22.80;90.20;;;;;;4927391;29;20460;-66
2023/06/03 09:59:30;;;;;;;3.38;1.55;;;22.60;90.60;;;;;;4920242;29;20086;-66
2023/06/03 10:02:20;;;;;;;6.82;1.92;;;23.10;90.20;;;;;;4890657;29;20079;-67
2023/06/03 10:04:52;;;;;;;6.30;1.92;;;23.20;90.00;;;;;;4866002;29;20488;-67
2023/06/03 10:07:24;;;;;;;3.35;1.73;;;23.30;88.90;;;;;;4891116;29;20050;-66
2023/06/03 10:10:08;;;;;;;2.28;1.08;;;23.50;88.40;;;;;;4906531;29;20067;-66
2023/06/03 10:12:33;;;;;;;2.80;1.45;;;23.60;87.80;;;;;;4897847;29;20073;-67
2023/06/03 10:14:59;;;;;;;2.40;1.02;;;23.60;86.80;;;;;;4907752;29;20083;-67
2023/06/03 10:17:45;;;;;;;4.85;1.40;;;23.70;87.70;;;;;;4907708;29;20135;-66
2023/06/03 10:20:39;;;;;;;5.40;1.50;;;24.00;86.50;;;;;;4927961;29;20046;-67
2023/06/03 10:23:14;;;;;;;8.70;1.45;;;24.10;86.00;;;;;;4924458;29;20052;-66
2023/06/03 10:26:29;;;;;;;3.47;1.33;;;24.10;86.60;;;;;;4915559;29;20036;-67
2023/06/03 10:29:07;;;;;;;1.63;1.10;;;24.10;86.10;;;;;;4915517;29;20044;-66
2023/06/03 10:31:39;;;;;;;4.82;1.85;;;24.10;86.60;;;;;;4927198;29;20044;-67
2023/06/03 10:34:48;;;;;;;3.22;1.67;;;24.20;84.90;;;;;;4907770;29;20039;-67
2023/06/03 10:37:26;;;;;;;4.43;1.83;;;24.40;85.40;;;;;;4944136;28;20046;-67
2023/06/03 10:39:59;;;;;;;2.85;1.23;;;24.60;84.60;;;;;;4949051;28;20074;-67
2023/06/03 10:42:33;;;;;;;1.98;1.13;;;24.60;82.30;;;;;;4969424;28;20499;-68
2023/06/03 10:45:06;;;;;;;4.15;1.75;;;24.50;83.90;;;;;;4955421;28;20069;-66
2023/06/03 10:47:44;;;;;;;2.55;1.38;;;24.50;83.90;;;;;;4961645;28;20384;-67
2023/06/03 10:50:47;;;;;;;6.00;2.20;;;24.20;83.30;;;;;;4972027;28;20027;-67
2023/06/03 10:58:04;;;;;;;4.88;1.85;;;24.90;81.40;;;;;;4922144;29;20636;-66
2023/06/03 11:01:13;;;;;;;3.90;1.50;;;24.90;82.10;;;;;;4882884;29;20052;-66
2023/06/03 11:04:06;;;;;;;5.57;1.77;;;25.20;81.50;;;;;;4923168;29;20071;-67
2023/06/03 11:07:40;;;;;;;3.35;1.83;;;25.30;80.20;;;;;;4929897;29;20047;-67
2023/06/03 11:10:41;;;;;;;3.58;1.67;;;25.10;80.10;;;;;;4867549;29;20540;-67
2023/06/03 11:13:51;;;;;;;8.63;2.40;;;25.30;79.90;;;;;;4882038;29;20065;-68
2023/06/03 11:17:18;;;;;;;5.90;1.67;;;25.60;80.00;;;;;;4881402;29;20048;-67
2023/06/03 11:20:38;;;;;;;3.47;1.40;;;25.60;79.00;;;;;;4874175;29;20040;-68
2023/06/03 11:23:10;;;;;;;4.10;2.17;;;25.70;78.60;;;;;;4878408;29;20133;-66
2023/06/03 11:26:36;;;;;;;2.35;1.50;;;25.70;78.20;;;;;;4860624;29;20092;-67
2023/06/03 11:29:46;;;;;;;2.72;1.60;;;26.10;77.10;;;;;;4815092;29;20035;-68
2023/06/03 11:32:24;;;;;;;4.40;1.58;;;26.30;76.60;;;;;;4802405;29;20050;-66
2023/06/03 11:35:07;;;;;;;3.97;1.30;;;26.70;75.80;;;;;;4874427;29;20069;-66
2023/06/03 11:40:50;;;;;;;5.95;2.03;;;27.00;74.90;;;;;;4903545;29;20056;-67
2023/06/03 11:43:25;;;;;;;2.72;1.60;;;26.90;73.70;;;;;;4928137;28;20043;-67
2023/06/03 11:45:50;;;;;;;4.78;1.83;;;26.40;73.90;;;;;;4970944;28;20058;-67
2023/06/03 11:49:34;;;;;;;5.53;1.88;;;26.10;75.10;;;;;;4962898;28;20479;-67
2023/06/03 11:52:10;;;;;;;5.10;1.60;;;26.80;73.40;;;;;;4831659;29;20050;-67
2023/06/03 11:54:46;;;;;;;3.75;1.48;;;27.20;73.40;;;;;;4819106;29;20043;-68
2023/06/03 11:58:22;;;;;;;3.15;1.48;;;27.30;73.10;;;;;;4833853;29;20050;-66
2023/06/03 12:04:10;;;;;;;6.50;1.63;;;27.00;72.20;;;;;;4812978;29;20053;-67
2023/06/03 12:06:39;;;;;;;6.78;1.85;;;26.80;72.50;;;;;;4818402;29;20546;-67
2023/06/03 12:09:35;;;;;;;2.75;1.50;;;26.80;72.30;;;;;;4819067;29;20169;-67
2023/06/03 12:12:13;;;;;;;2.13;1.25;;;26.60;73.00;;;;;;4818108;29;20059;-67
2023/06/03 12:14:39;;;;;;;3.03;1.50;;;27.00;72.20;;;;;;4818924;29;20580;-67
2023/06/03 12:17:21;;;;;;;3.15;1.38;;;27.10;71.70;;;;;;4820614;29;20156;-68
2023/06/03 12:19:59;;;;;;;6.57;1.90;;;26.20;72.10;;;;;;4831287;29;20038;-68
2023/06/03 12:22:48;;;;;;;3.88;2.05;;;26.00;72.80;;;;;;4853335;29;20128;-68
2023/06/03 12:25:27;;;;;;;3.88;1.80;;;26.50;73.20;;;;;;4944593;28;20086;-67
2023/06/03 12:27:54;;;;;;;4.57;1.55;;;27.40;71.40;;;;;;4965495;28;20035;-66
2023/06/03 12:31:14;;;;;;;3.13;1.77;;;27.00;71.90;;;;;;4956598;28;20042;-67
2023/06/03 12:34:33;;;;;;;5.18;1.60;;;27.30;70.70;;;;;;4914780;29;20044;-68
2023/06/03 12:37:08;;;;;;;2.67;1.27;;;27.60;71.20;;;;;;4865643;29;20041;-67
2023/06/03 12:39:50;;;;;;;3.55;1.50;;;28.20;70.60;;;;;;4894815;29;20064;-67
2023/06/03 12:42:53;;;;;;;3.55;1.30;;;28.20;68.90;;;;;;4884909;29;20045;-67
2023/06/03 12:45:58;;;;;;;4.65;1.70;;;28.90;68.40;;;;;;4891603;29;20041;-67
2023/06/03 12:48:56;;;;;;;2.63;1.52;;;28.40;68.10;;;;;;4879475;29;20100;-67
2023/06/03 12:51:32;;;;;;;2.63;1.60;;;28.30;67.50;;;;;;4876990;29;20040;-68
2023/06/03 12:54:10;;;;;;;7.95;1.83;;;28.50;67.20;;;;;;4874371;29;20053;-68
2023/06/03 12:57:06;;;;;;;2.55;1.27;;;28.80;66.50;;;;;;4888406;29;20040;-67
2023/06/03 13:00:33;;;;;;;2.70;1.40;;;28.80;66.70;;;;;;4879162;29;20789;-67
2023/06/03 13:03:01;;;;;;;3.47;1.45;;;28.90;67.30;;;;;;4803398;29;20409;-67
2023/06/03 13:05:41;;;;;;;3.65;1.70;;;28.70;66.80;;;;;;4802514;29;20038;-67
2023/06/03 13:08:19;;;;;;;3.93;1.90;;;29.00;66.20;;;;;;4792752;29;20042;-67
2023/06/03 13:11:23;;;;;;;3.85;1.38;;;28.70;65.90;;;;;;4824561;29;20302;-67
2023/06/03 13:14:09;;;;;;;2.50;1.30;;;28.90;65.30;;;;;;4870396;29;20045;-68
2023/06/03 13:16:40;;;;;;;10.73;2.30;;;28.40;66.80;;;;;;4866334;29;20512;-68
2023/06/03 13:19:09;;;;;;;3.17;1.67;;;28.70;68.00;;;;;;4871925;29;20068;-67
2023/06/03 13:21:35;;;;;;;4.00;1.83;;;28.20;65.70;;;;;;4869037;29;20038;-66
2023/06/03 13:24:18;;;;;;;2.17;1.15;;;26.90;67.70;;;;;;4871602;29;20064;-66
2023/06/03 13:26:47;;;;;;;6.03;2.00;;;27.00;69.00;;;;;;4929511;28;20046;-66
2023/06/03 13:29:16;;;;;;;10.90;1.85;;;27.80;68.40;;;;;;4969231;28;20039;-66
2023/06/03 13:32:14;;;;;;;3.17;1.40;;;28.40;65.70;;;;;;4972938;28;20027;-67
2023/06/03 13:34:40;;;;;;;4.18;2.15;;;27.80;66.60;;;;;;4973980;28;20034;-66
2023/06/03 13:37:18;;;;;;;5.88;1.90;;;27.90;66.70;;;;;;4955742;28;20041;-67
2023/06/03 13:40:19;;;;;;;11.38;1.80;;;28.90;65.30;;;;;;4953049;29;20036;-67